sensor_id;sensor_type;location;lat;lon;timestamp;pressure;altitude;pressure_sealevel;temperature;humidity
20971;BME280;10644;48.834;10.088;2022-08-19T00:01:01;96160.72;;;25.48;52.89
20971;BME280;10644;48.834;10.088;2022-08-19T00:03:37;96157.03;;;25.43;53.30
20971;BME280;10644;48.834;10.088;2022-08-19T00:06:11;96147.66;;;25.55;53.00
20971;BME280;10644;48.834;10.088;2022-08-19T00:08:36;96157.81;;;25.64;53.46
20971;BME280;10644;48.834;10.088;2022-08-19T00:11:02;96159.84;;;25.62;53.79
20971;BME280;10644;48.834;10.088;2022-08-19T00:13:37;96168.56;;;25.69;53.02
20971;BME280;10644;48.834;10.088;2022-08-19T00:16:17;96171.19;;;25.69;53.55
20971;BME280;10644;48.834;10.088;2022-08-19T00:18:55;96159.41;;;25.59;53.69
20971;BME280;10644;48.834;10.088;2022-08-19T00:21:21;96174.75;;;25.62;54.60
20971;BME280;10644;48.834;10.088;2022-08-19T00:24:10;96173.56;;;25.64;53.96
20971;BME280;10644;48.834;10.088;2022-08-19T00:26:55;96173.81;;;25.69;53.71
20971;BME280;10644;48.834;10.088;2022-08-19T00:29:30;96168.31;;;25.64;53.88
20971;BME280;10644;48.834;10.088;2022-08-19T00:31:57;96152.09;;;25.54;54.65
20971;BME280;10644;48.834;10.088;2022-08-19T00:34:33;96150.25;;;25.34;55.05
20971;BME280;10644;48.834;10.088;2022-08-19T00:37:07;96141.34;;;25.14;55.88
20971;BME280;10644;48.834;10.088;2022-08-19T00:39:45;96138.94;;;24.98;56.22
20971;BME280;10644;48.834;10.088;2022-08-19T00:42:42;96148.84;;;25.17;56.07
20971;BME280;10644;48.834;10.088;2022-08-19T00:45:14;96138.13;;;25.12;55.97
20971;BME280;10644;48.834;10.088;2022-08-19T00:47:45;96148.78;;;25.10;56.29
20971;BME280;10644;48.834;10.088;2022-08-19T00:50:28;96140.94;;;24.96;56.24
20971;BME280;10644;48.834;10.088;2022-08-19T00:52:55;96136.81;;;24.87;57.04
20971;BME280;10644;48.834;10.088;2022-08-19T00:55:28;96138.81;;;24.85;56.88
20971;BME280;10644;48.834;10.088;2022-08-19T00:58:07;96151.06;;;24.99;57.15
20971;BME280;10644;48.834;10.088;2022-08-19T01:00:35;96145.03;;;24.84;58.10
20971;BME280;10644;48.834;10.088;2022-08-19T01:03:38;96170.25;;;24.85;58.25
20971;BME280;10644;48.834;10.088;2022-08-19T01:06:22;96163.75;;;24.81;58.02
20971;BME280;10644;48.834;10.088;2022-08-19T01:09:02;96166.50;;;24.58;59.10
20971;BME280;10644;48.834;10.088;2022-08-19T01:11:40;96175.97;;;24.59;59.03
20971;BME280;10644;48.834;10.088;2022-08-19T01:14:18;96172.59;;;24.51;59.29
20971;BME280;10644;48.834;10.088;2022-08-19T01:16:57;96156.47;;;24.62;58.96
20971;BME280;10644;48.834;10.088;2022-08-19T01:19:50;96155.91;;;24.66;59.43
20971;BME280;10644;48.834;10.088;2022-08-19T01:22:54;96149.47;;;24.69;58.62
20971;BME280;10644;48.834;10.088;2022-08-19T01:25:57;96162.13;;;24.80;58.51
20971;BME280;10644;48.834;10.088;2022-08-19T01:28:36;96165.28;;;24.90;58.71
20971;BME280;10644;48.834;10.088;2022-08-19T01:31:15;96163.84;;;24.87;59.18
20971;BME280;10644;48.834;10.088;2022-08-19T01:33:50;96152.19;;;24.61;59.16
20971;BME280;10644;48.834;10.088;2022-08-19T01:39:37;96168.59;;;24.40;60.25
20971;BME280;10644;48.834;10.088;2022-08-19T01:42:11;96169.53;;;24.33;60.59
20971;BME280;10644;48.834;10.088;2022-08-19T01:47:36;96155.78;;;24.31;59.73
20971;BME280;10644;48.834;10.088;2022-08-19T01:50:23;96162.84;;;24.45;59.36
20971;BME280;10644;48.834;10.088;2022-08-19T01:52:49;96163.19;;;24.42;60.11
20971;BME280;10644;48.834;10.088;2022-08-19T01:55:31;96148.47;;;24.41;59.58
20971;BME280;10644;48.834;10.088;2022-08-19T01:58:00;96157.31;;;24.40;59.11
20971;BME280;10644;48.834;10.088;2022-08-19T02:00:30;96159.94;;;24.40;59.48
20971;BME280;10644;48.834;10.088;2022-08-19T02:02:58;96161.13;;;24.37;59.48
20971;BME280;10644;48.834;10.088;2022-08-19T02:05:32;96158.31;;;24.39;59.41
20971;BME280;10644;48.834;10.088;2022-08-19T02:08:01;96157.31;;;24.25;59.81
20971;BME280;10644;48.834;10.088;2022-08-19T02:10:29;96154.50;;;24.27;59.84
20971;BME280;10644;48.834;10.088;2022-08-19T02:13:12;96174.38;;;24.36;59.43
20971;BME280;10644;48.834;10.088;2022-08-19T02:15:44;96169.31;;;24.20;60.00
20971;BME280;10644;48.834;10.088;2022-08-19T02:18:25;96162.91;;;24.22;59.59
20971;BME280;10644;48.834;10.088;2022-08-19T02:21:02;96170.88;;;24.29;59.61
20971;BME280;10644;48.834;10.088;2022-08-19T02:23:32;96178.28;;;24.25;60.25
20971;BME280;10644;48.834;10.088;2022-08-19T02:26:11;96187.19;;;24.31;59.58
20971;BME280;10644;48.834;10.088;2022-08-19T02:28:44;96187.91;;;24.25;59.80
20971;BME280;10644;48.834;10.088;2022-08-19T02:31:15;96184.97;;;24.28;60.15
20971;BME280;10644;48.834;10.088;2022-08-19T02:33:58;96190.09;;;24.36;59.53
20971;BME280;10644;48.834;10.088;2022-08-19T02:36:33;96187.56;;;24.28;59.53
20971;BME280;10644;48.834;10.088;2022-08-19T02:38:58;96188.81;;;24.32;59.61
20971;BME280;10644;48.834;10.088;2022-08-19T02:41:28;96186.84;;;24.34;59.66
20971;BME280;10644;48.834;10.088;2022-08-19T02:43:55;96179.91;;;24.41;59.22
20971;BME280;10644;48.834;10.088;2022-08-19T02:46:25;96187.03;;;24.47;59.35
20971;BME280;10644;48.834;10.088;2022-08-19T02:48:55;96175.22;;;24.36;59.18
20971;BME280;10644;48.834;10.088;2022-08-19T02:51:29;96181.25;;;24.37;59.35
20971;BME280;10644;48.834;10.088;2022-08-19T02:54:01;96179.16;;;24.32;59.33
20971;BME280;10644;48.834;10.088;2022-08-19T02:56:34;96189.53;;;24.26;59.57
20971;BME280;10644;48.834;10.088;2022-08-19T02:59:14;96180.94;;;24.03;59.84
20971;BME280;10644;48.834;10.088;2022-08-19T03:01:42;96182.38;;;24.05;60.25
20971;BME280;10644;48.834;10.088;2022-08-19T03:04:18;96184.56;;;24.16;60.14
20971;BME280;10644;48.834;10.088;2022-08-19T03:06:46;96193.66;;;24.06;60.51
20971;BME280;10644;48.834;10.088;2022-08-19T03:09:18;96192.63;;;23.92;60.18
20971;BME280;10644;48.834;10.088;2022-08-19T03:11:45;96170.94;;;23.84;60.58
20971;BME280;10644;48.834;10.088;2022-08-19T03:14:30;96179.78;;;23.83;60.48
20971;BME280;10644;48.834;10.088;2022-08-19T03:16:58;96169.94;;;23.85;61.50
20971;BME280;10644;48.834;10.088;2022-08-19T03:19:26;96162.56;;;23.66;61.63
20971;BME280;10644;48.834;10.088;2022-08-19T03:21:54;96151.38;;;23.57;62.18
20971;BME280;10644;48.834;10.088;2022-08-19T03:24:20;96150.88;;;23.54;62.44
20971;BME280;10644;48.834;10.088;2022-08-19T03:26:57;96163.66;;;23.71;61.87
20971;BME280;10644;48.834;10.088;2022-08-19T03:29:26;96151.69;;;23.77;62.07
20971;BME280;10644;48.834;10.088;2022-08-19T03:32:03;96169.03;;;23.78;61.66
20971;BME280;10644;48.834;10.088;2022-08-19T03:35:06;96173.88;;;23.89;61.80
20971;BME280;10644;48.834;10.088;2022-08-19T03:37:31;96169.09;;;23.84;62.02
20971;BME280;10644;48.834;10.088;2022-08-19T03:39:56;96178.41;;;23.87;62.06
20971;BME280;10644;48.834;10.088;2022-08-19T03:42:22;96174.50;;;23.91;61.78
20971;BME280;10644;48.834;10.088;2022-08-19T03:44:47;96170.88;;;23.92;61.64
20971;BME280;10644;48.834;10.088;2022-08-19T03:47:17;96169.53;;;23.96;61.38
20971;BME280;10644;48.834;10.088;2022-08-19T03:49:44;96173.78;;;23.97;61.31
20971;BME280;10644;48.834;10.088;2022-08-19T03:52:16;96170.19;;;23.75;61.87
20971;BME280;10644;48.834;10.088;2022-08-19T03:54:55;96187.25;;;23.94;61.45
20971;BME280;10644;48.834;10.088;2022-08-19T03:57:32;96173.19;;;23.87;61.44
20971;BME280;10644;48.834;10.088;2022-08-19T03:59:59;96185.41;;;23.94;61.56
20971;BME280;10644;48.834;10.088;2022-08-19T04:02:25;96176.69;;;23.79;61.76
20971;BME280;10644;48.834;10.088;2022-08-19T04:04:53;96177.19;;;23.75;62.42
20971;BME280;10644;48.834;10.088;2022-08-19T04:07:23;96173.44;;;23.77;62.22
20971;BME280;10644;48.834;10.088;2022-08-19T04:09:56;96174.88;;;23.80;62.00
20971;BME280;10644;48.834;10.088;2022-08-19T04:12:22;96165.75;;;23.76;62.53
20971;BME280;10644;48.834;10.088;2022-08-19T04:14:55;96168.19;;;23.77;62.01
20971;BME280;10644;48.834;10.088;2022-08-19T04:17:33;96167.66;;;23.82;61.85
20971;BME280;10644;48.834;10.088;2022-08-19T04:19:59;96165.31;;;23.87;61.93
20971;BME280;10644;48.834;10.088;2022-08-19T04:22:31;96176.78;;;23.86;62.07
20971;BME280;10644;48.834;10.088;2022-08-19T04:24:58;96165.41;;;23.79;62.32
20971;BME280;10644;48.834;10.088;2022-08-19T04:27:27;96171.22;;;23.66;62.72
20971;BME280;10644;48.834;10.088;2022-08-19T04:29:59;96169.47;;;23.59;62.97
20971;BME280;10644;48.834;10.088;2022-08-19T04:32:44;96177.03;;;23.54;63.17
20971;BME280;10644;48.834;10.088;2022-08-19T04:35:23;96167.78;;;23.43;63.32
20971;BME280;10644;48.834;10.088;2022-08-19T04:38:09;96172.78;;;23.53;63.14
20971;BME280;10644;48.834;10.088;2022-08-19T04:40:47;96169.53;;;23.51;63.33
20971;BME280;10644;48.834;10.088;2022-08-19T04:43:32;96176.81;;;23.63;63.10
20971;BME280;10644;48.834;10.088;2022-08-19T04:46:09;96169.78;;;23.64;62.66
20971;BME280;10644;48.834;10.088;2022-08-19T04:48:52;96176.22;;;23.76;62.54
20971;BME280;10644;48.834;10.088;2022-08-19T04:51:20;96168.56;;;23.74;62.62
20971;BME280;10644;48.834;10.088;2022-08-19T04:53:46;96177.88;;;23.77;62.51
20971;BME280;10644;48.834;10.088;2022-08-19T04:56:29;96202.66;;;23.89;62.05
20971;BME280;10644;48.834;10.088;2022-08-19T04:58:55;96187.44;;;23.62;62.44
20971;BME280;10644;48.834;10.088;2022-08-19T05:01:27;96190.88;;;23.62;62.72
20971;BME280;10644;48.834;10.088;2022-08-19T05:04:10;96191.69;;;23.63;62.27
20971;BME280;10644;48.834;10.088;2022-08-19T05:06:50;96203.06;;;23.70;62.30
20971;BME280;10644;48.834;10.088;2022-08-19T05:09:17;96193.16;;;23.65;62.30
20971;BME280;10644;48.834;10.088;2022-08-19T05:11:52;96213.84;;;23.75;62.29
20971;BME280;10644;48.834;10.088;2022-08-19T05:14:21;96225.28;;;23.74;62.47
20971;BME280;10644;48.834;10.088;2022-08-19T05:16:47;96224.31;;;23.75;62.16
20971;BME280;10644;48.834;10.088;2022-08-19T05:19:14;96235.16;;;23.64;62.28
20971;BME280;10644;48.834;10.088;2022-08-19T05:22:00;96232.22;;;23.67;62.11
20971;BME280;10644;48.834;10.088;2022-08-19T05:24:50;96234.13;;;23.73;62.12
20971;BME280;10644;48.834;10.088;2022-08-19T05:27:19;96234.44;;;23.78;61.84
20971;BME280;10644;48.834;10.088;2022-08-19T05:29:44;96246.44;;;23.87;61.87
20971;BME280;10644;48.834;10.088;2022-08-19T05:32:10;96237.38;;;23.75;62.23
20971;BME280;10644;48.834;10.088;2022-08-19T05:34:44;96245.53;;;23.80;62.24
20971;BME280;10644;48.834;10.088;2022-08-19T05:37:20;96243.91;;;23.79;62.15
20971;BME280;10644;48.834;10.088;2022-08-19T05:39:47;96250.56;;;23.89;62.09
20971;BME280;10644;48.834;10.088;2022-08-19T05:42:31;96240.28;;;23.80;62.21
20971;BME280;10644;48.834;10.088;2022-08-19T05:44:57;96252.69;;;23.86;62.01
20971;BME280;10644;48.834;10.088;2022-08-19T05:47:25;96262.44;;;24.00;62.03
20971;BME280;10644;48.834;10.088;2022-08-19T05:49:51;96251.44;;;24.04;61.40
20971;BME280;10644;48.834;10.088;2022-08-19T05:52:25;96271.56;;;24.04;61.52
20971;BME280;10644;48.834;10.088;2022-08-19T05:54:53;96263.69;;;24.04;61.74
20971;BME280;10644;48.834;10.088;2022-08-19T05:57:20;96265.34;;;24.05;61.83
20971;BME280;10644;48.834;10.088;2022-08-19T05:59:50;96254.88;;;24.05;61.84
20971;BME280;10644;48.834;10.088;2022-08-19T06:02:16;96255.56;;;23.99;61.60
20971;BME280;10644;48.834;10.088;2022-08-19T06:04:44;96261.28;;;24.02;61.59
20971;BME280;10644;48.834;10.088;2022-08-19T06:07:09;96262.19;;;24.09;61.55
20971;BME280;10644;48.834;10.088;2022-08-19T06:09:36;96263.28;;;24.15;61.14
20971;BME280;10644;48.834;10.088;2022-08-19T06:12:06;96264.81;;;24.09;61.45
20971;BME280;10644;48.834;10.088;2022-08-19T06:14:37;96253.59;;;24.01;61.93
20971;BME280;10644;48.834;10.088;2022-08-19T06:17:02;96255.38;;;24.00;61.58
20971;BME280;10644;48.834;10.088;2022-08-19T06:19:31;96259.66;;;24.16;61.32
20971;BME280;10644;48.834;10.088;2022-08-19T06:21:57;96251.06;;;24.07;61.52
20971;BME280;10644;48.834;10.088;2022-08-19T06:24:28;96256.13;;;24.09;61.75
20971;BME280;10644;48.834;10.088;2022-08-19T06:27:03;96254.47;;;23.93;61.97
20971;BME280;10644;48.834;10.088;2022-08-19T06:29:31;96248.34;;;24.01;61.90
20971;BME280;10644;48.834;10.088;2022-08-19T06:32:00;96261.31;;;24.17;61.65
20971;BME280;10644;48.834;10.088;2022-08-19T06:34:30;96261.03;;;24.12;61.49
20971;BME280;10644;48.834;10.088;2022-08-19T06:37:00;96263.22;;;24.23;61.04
20971;BME280;10644;48.834;10.088;2022-08-19T06:39:34;96255.72;;;24.20;61.18
20971;BME280;10644;48.834;10.088;2022-08-19T06:42:09;96266.19;;;24.20;61.43
20971;BME280;10644;48.834;10.088;2022-08-19T06:45:04;96263.69;;;24.26;61.39
20971;BME280;10644;48.834;10.088;2022-08-19T06:47:29;96265.31;;;24.27;61.25
20971;BME280;10644;48.834;10.088;2022-08-19T06:50:02;96277.38;;;24.36;60.52
20971;BME280;10644;48.834;10.088;2022-08-19T06:52:46;96270.25;;;24.22;61.25
20971;BME280;10644;48.834;10.088;2022-08-19T06:55:28;96262.66;;;24.13;61.72
20971;BME280;10644;48.834;10.088;2022-08-19T06:57:56;96268.72;;;24.13;61.83
20971;BME280;10644;48.834;10.088;2022-08-19T07:00:40;96265.56;;;24.18;61.53
20971;BME280;10644;48.834;10.088;2022-08-19T07:03:07;96267.75;;;24.29;61.21
20971;BME280;10644;48.834;10.088;2022-08-19T07:05:52;96269.66;;;24.35;61.14
20971;BME280;10644;48.834;10.088;2022-08-19T07:08:27;96265.44;;;24.34;61.08
20971;BME280;10644;48.834;10.088;2022-08-19T07:10:59;96267.47;;;24.24;61.13
20971;BME280;10644;48.834;10.088;2022-08-19T07:13:26;96259.25;;;24.27;61.10
20971;BME280;10644;48.834;10.088;2022-08-19T07:15:58;96270.75;;;24.40;61.10
20971;BME280;10644;48.834;10.088;2022-08-19T07:18:27;96266.97;;;24.06;61.77
20971;BME280;10644;48.834;10.088;2022-08-19T07:21:09;96278.44;;;24.05;61.98
20971;BME280;10644;48.834;10.088;2022-08-19T07:23:35;96251.16;;;23.99;62.08
20971;BME280;10644;48.834;10.088;2022-08-19T07:26:21;96276.78;;;24.04;61.98
20971;BME280;10644;48.834;10.088;2022-08-19T07:28:47;96270.00;;;23.95;62.56
20971;BME280;10644;48.834;10.088;2022-08-19T07:34:48;96275.25;;;23.95;62.66
20971;BME280;10644;48.834;10.088;2022-08-19T07:37:25;96290.91;;;24.17;62.12
20971;BME280;10644;48.834;10.088;2022-08-19T07:40:09;96289.41;;;24.23;61.76
20971;BME280;10644;48.834;10.088;2022-08-19T07:42:37;96280.44;;;24.17;61.72
20971;BME280;10644;48.834;10.088;2022-08-19T07:45:07;96291.47;;;24.13;62.12
20971;BME280;10644;48.834;10.088;2022-08-19T07:47:47;96300.75;;;24.15;61.88
20971;BME280;10644;48.834;10.088;2022-08-19T07:50:16;96291.38;;;24.21;61.82
20971;BME280;10644;48.834;10.088;2022-08-19T07:52:45;96289.13;;;24.18;61.78
20971;BME280;10644;48.834;10.088;2022-08-19T07:55:16;96287.44;;;24.25;61.54
20971;BME280;10644;48.834;10.088;2022-08-19T07:58:02;96298.59;;;24.19;61.81
20971;BME280;10644;48.834;10.088;2022-08-19T08:00:39;96316.31;;;24.17;61.81
20971;BME280;10644;48.834;10.088;2022-08-19T08:03:05;96286.16;;;23.98;62.44
20971;BME280;10644;48.834;10.088;2022-08-19T08:05:35;96292.56;;;23.96;62.40
20971;BME280;10644;48.834;10.088;2022-08-19T08:08:25;96295.41;;;24.09;62.13
20971;BME280;10644;48.834;10.088;2022-08-19T08:11:01;96292.66;;;24.25;62.21
20971;BME280;10644;48.834;10.088;2022-08-19T08:13:31;96284.53;;;24.20;61.86
20971;BME280;10644;48.834;10.088;2022-08-19T08:16:00;96295.81;;;24.20;62.08
20971;BME280;10644;48.834;10.088;2022-08-19T08:18:26;96285.47;;;24.04;62.43
20971;BME280;10644;48.834;10.088;2022-08-19T08:20:52;96279.31;;;23.97;62.51
20971;BME280;10644;48.834;10.088;2022-08-19T08:23:19;96284.63;;;24.04;62.58
20971;BME280;10644;48.834;10.088;2022-08-19T08:25:54;96289.47;;;24.15;62.11
20971;BME280;10644;48.834;10.088;2022-08-19T08:28:26;96297.53;;;24.13;62.36
20971;BME280;10644;48.834;10.088;2022-08-19T08:30:52;96296.47;;;24.00;62.38
20971;BME280;10644;48.834;10.088;2022-08-19T08:33:27;96298.72;;;24.03;62.13
20971;BME280;10644;48.834;10.088;2022-08-19T08:35:52;96279.84;;;23.85;62.70
20971;BME280;10644;48.834;10.088;2022-08-19T08:38:18;96287.78;;;23.99;62.56
20971;BME280;10644;48.834;10.088;2022-08-19T08:40:49;96289.94;;;23.96;62.22
20971;BME280;10644;48.834;10.088;2022-08-19T08:43:37;96290.56;;;23.98;62.10
20971;BME280;10644;48.834;10.088;2022-08-19T08:46:12;96296.03;;;23.88;62.85
20971;BME280;10644;48.834;10.088;2022-08-19T08:48:59;96290.31;;;23.85;62.87
20971;BME280;10644;48.834;10.088;2022-08-19T08:51:51;96299.16;;;23.84;62.79
20971;BME280;10644;48.834;10.088;2022-08-19T08:54:25;96301.25;;;23.66;62.62
20971;BME280;10644;48.834;10.088;2022-08-19T08:57:16;96300.19;;;23.75;62.57
20971;BME280;10644;48.834;10.088;2022-08-19T08:59:45;96294.31;;;23.73;62.53
20971;BME280;10644;48.834;10.088;2022-08-19T09:02:16;96300.78;;;23.85;62.52
20971;BME280;10644;48.834;10.088;2022-08-19T09:04:46;96304.03;;;23.87;62.06
20971;BME280;10644;48.834;10.088;2022-08-19T09:07:37;96296.75;;;24.05;61.61
20971;BME280;10644;48.834;10.088;2022-08-19T09:15:47;96292.56;;;23.96;61.54
20971;BME280;10644;48.834;10.088;2022-08-19T09:18:16;96290.94;;;23.95;61.53
20971;BME280;10644;48.834;10.088;2022-08-19T09:20:42;96308.16;;;24.12;60.79
20971;BME280;10644;48.834;10.088;2022-08-19T09:23:14;96311.19;;;24.01;60.77
20971;BME280;10644;48.834;10.088;2022-08-19T09:25:53;96304.66;;;23.97;61.38
20971;BME280;10644;48.834;10.088;2022-08-19T09:28:34;96309.47;;;23.85;61.24
20971;BME280;10644;48.834;10.088;2022-08-19T09:31:01;96295.53;;;23.85;60.72
20971;BME280;10644;48.834;10.088;2022-08-19T09:33:29;96309.09;;;23.96;60.74
20971;BME280;10644;48.834;10.088;2022-08-19T09:36:21;96307.63;;;23.86;60.89
20971;BME280;10644;48.834;10.088;2022-08-19T09:39:01;96306.66;;;23.95;60.51
20971;BME280;10644;48.834;10.088;2022-08-19T09:41:33;96296.88;;;23.89;60.58
20971;BME280;10644;48.834;10.088;2022-08-19T09:44:00;96301.94;;;23.82;60.64
20971;BME280;10644;48.834;10.088;2022-08-19T09:46:30;96297.25;;;23.70;60.75
20971;BME280;10644;48.834;10.088;2022-08-19T09:49:01;96308.34;;;23.80;60.64
20971;BME280;10644;48.834;10.088;2022-08-19T09:51:30;96295.47;;;23.70;60.78
20971;BME280;10644;48.834;10.088;2022-08-19T09:54:18;96300.09;;;23.68;60.55
20971;BME280;10644;48.834;10.088;2022-08-19T09:56:54;96280.13;;;23.67;60.51
20971;BME280;10644;48.834;10.088;2022-08-19T09:59:29;96298.09;;;23.70;60.50
20971;BME280;10644;48.834;10.088;2022-08-19T10:02:18;96308.34;;;23.80;60.35
20971;BME280;10644;48.834;10.088;2022-08-19T10:04:46;96308.41;;;23.64;60.63
20971;BME280;10644;48.834;10.088;2022-08-19T10:07:49;96309.84;;;23.74;60.67
20971;BME280;10644;48.834;10.088;2022-08-19T10:10:17;96310.31;;;23.78;60.72
20971;BME280;10644;48.834;10.088;2022-08-19T10:12:50;96310.31;;;23.78;60.31
20971;BME280;10644;48.834;10.088;2022-08-19T10:15:25;96319.72;;;23.87;60.57
20971;BME280;10644;48.834;10.088;2022-08-19T10:20:46;96326.28;;;23.91;60.17
20971;BME280;10644;48.834;10.088;2022-08-19T10:23:31;96325.75;;;23.95;59.76
20971;BME280;10644;48.834;10.088;2022-08-19T10:25:59;96330.44;;;24.08;60.03
20971;BME280;10644;48.834;10.088;2022-08-19T10:28:30;96329.53;;;23.93;59.49
20971;BME280;10644;48.834;10.088;2022-08-19T10:34:02;96323.69;;;23.91;59.89
20971;BME280;10644;48.834;10.088;2022-08-19T10:36:35;96332.19;;;23.85;59.78
20971;BME280;10644;48.834;10.088;2022-08-19T10:39:10;96329.56;;;23.85;60.21
20971;BME280;10644;48.834;10.088;2022-08-19T10:41:39;96333.28;;;23.98;60.40
20971;BME280;10644;48.834;10.088;2022-08-19T10:44:12;96335.06;;;23.98;60.11
20971;BME280;10644;48.834;10.088;2022-08-19T10:46:43;96339.03;;;23.86;60.42
20971;BME280;10644;48.834;10.088;2022-08-19T10:49:15;96339.75;;;23.80;60.69
20971;BME280;10644;48.834;10.088;2022-08-19T10:51:47;96323.78;;;23.67;60.98
20971;BME280;10644;48.834;10.088;2022-08-19T10:54:44;96346.66;;;23.73;61.76
20971;BME280;10644;48.834;10.088;2022-08-19T10:57:31;96341.50;;;23.87;61.39
20971;BME280;10644;48.834;10.088;2022-08-19T11:00:04;96345.59;;;23.90;61.32
20971;BME280;10644;48.834;10.088;2022-08-19T11:02:30;96341.03;;;23.84;61.63
20971;BME280;10644;48.834;10.088;2022-08-19T11:05:22;96342.75;;;23.99;61.56
20971;BME280;10644;48.834;10.088;2022-08-19T11:07:51;96344.28;;;23.94;61.85
20971;BME280;10644;48.834;10.088;2022-08-19T11:10:19;96339.03;;;23.86;62.70
20971;BME280;10644;48.834;10.088;2022-08-19T11:12:53;96345.22;;;24.01;62.96
20971;BME280;10644;48.834;10.088;2022-08-19T11:15:30;96346.53;;;23.97;63.32
20971;BME280;10644;48.834;10.088;2022-08-19T11:18:04;96343.00;;;23.90;63.74
20971;BME280;10644;48.834;10.088;2022-08-19T11:20:30;96337.81;;;23.74;64.37
20971;BME280;10644;48.834;10.088;2022-08-19T11:23:07;96350.84;;;23.90;64.13
20971;BME280;10644;48.834;10.088;2022-08-19T11:25:46;96341.81;;;23.84;64.35
20971;BME280;10644;48.834;10.088;2022-08-19T11:28:14;96334.88;;;23.77;65.01
20971;BME280;10644;48.834;10.088;2022-08-19T11:30:50;96336.72;;;23.60;65.26
20971;BME280;10644;48.834;10.088;2022-08-19T11:33:16;96330.19;;;23.64;65.29
20971;BME280;10644;48.834;10.088;2022-08-19T11:35:43;96349.00;;;23.60;65.58
20971;BME280;10644;48.834;10.088;2022-08-19T11:38:11;96342.69;;;23.46;66.32
20971;BME280;10644;48.834;10.088;2022-08-19T11:41:00;96346.00;;;23.40;66.48
20971;BME280;10644;48.834;10.088;2022-08-19T11:43:40;96350.22;;;23.41;66.65
20971;BME280;10644;48.834;10.088;2022-08-19T11:46:12;96344.22;;;23.25;67.23
20971;BME280;10644;48.834;10.088;2022-08-19T11:48:51;96356.66;;;23.23;67.07
20971;BME280;10644;48.834;10.088;2022-08-19T11:51:22;96344.53;;;23.38;67.09
20971;BME280;10644;48.834;10.088;2022-08-19T11:53:53;96347.41;;;23.51;66.75
20971;BME280;10644;48.834;10.088;2022-08-19T11:56:28;96348.72;;;23.55;66.74
20971;BME280;10644;48.834;10.088;2022-08-19T11:59:11;96341.19;;;23.52;66.62
20971;BME280;10644;48.834;10.088;2022-08-19T12:01:37;96347.97;;;23.69;66.11
20971;BME280;10644;48.834;10.088;2022-08-19T12:04:34;96340.25;;;23.75;65.78
20971;BME280;10644;48.834;10.088;2022-08-19T12:07:11;96354.56;;;23.57;66.17
20971;BME280;10644;48.834;10.088;2022-08-19T12:09:49;96346.72;;;23.57;66.14
20971;BME280;10644;48.834;10.088;2022-08-19T12:12:29;96352.25;;;23.62;66.03
20971;BME280;10644;48.834;10.088;2022-08-19T12:14:57;96355.59;;;23.48;66.96
20971;BME280;10644;48.834;10.088;2022-08-19T12:17:26;96350.66;;;23.53;66.70
20971;BME280;10644;48.834;10.088;2022-08-19T12:19:54;96344.94;;;23.57;66.25
20971;BME280;10644;48.834;10.088;2022-08-19T12:22:22;96346.09;;;23.47;66.67
20971;BME280;10644;48.834;10.088;2022-08-19T12:25:10;96349.72;;;23.46;67.15
20971;BME280;10644;48.834;10.088;2022-08-19T12:27:38;96338.63;;;23.44;66.55
20971;BME280;10644;48.834;10.088;2022-08-19T12:33:39;96355.09;;;23.52;66.45
20971;BME280;10644;48.834;10.088;2022-08-19T12:36:06;96358.38;;;23.46;66.83
20971;BME280;10644;48.834;10.088;2022-08-19T12:38:41;96356.25;;;23.42;67.28
20971;BME280;10644;48.834;10.088;2022-08-19T12:41:11;96346.66;;;23.34;67.64
20971;BME280;10644;48.834;10.088;2022-08-19T12:43:39;96337.47;;;23.38;67.39
20971;BME280;10644;48.834;10.088;2022-08-19T12:46:09;96345.25;;;23.54;67.67
20971;BME280;10644;48.834;10.088;2022-08-19T12:48:56;96357.91;;;23.43;67.71
20971;BME280;10644;48.834;10.088;2022-08-19T12:51:38;96357.91;;;23.43;68.43
20971;BME280;10644;48.834;10.088;2022-08-19T12:54:27;96361.81;;;23.47;67.94
20971;BME280;10644;48.834;10.088;2022-08-19T12:56:52;96358.09;;;23.33;68.39
20971;BME280;10644;48.834;10.088;2022-08-19T12:59:32;96360.59;;;23.19;68.46
20971;BME280;10644;48.834;10.088;2022-08-19T13:02:05;96370.72;;;23.22;68.52
20971;BME280;10644;48.834;10.088;2022-08-19T13:04:32;96382.47;;;23.26;69.00
20971;BME280;10644;48.834;10.088;2022-08-19T13:07:00;96367.13;;;23.15;69.02
20971;BME280;10644;48.834;10.088;2022-08-19T13:09:48;96375.13;;;23.21;68.69
20971;BME280;10644;48.834;10.088;2022-08-19T13:12:18;96379.84;;;23.26;69.06
20971;BME280;10644;48.834;10.088;2022-08-19T13:14:45;96374.66;;;23.10;69.09
20971;BME280;10644;48.834;10.088;2022-08-19T13:17:17;96375.63;;;23.17;69.23
20971;BME280;10644;48.834;10.088;2022-08-19T13:20:05;96375.28;;;23.28;68.44
20971;BME280;10644;48.834;10.088;2022-08-19T13:22:38;96370.38;;;23.25;68.34
20971;BME280;10644;48.834;10.088;2022-08-19T13:25:06;96381.97;;;23.22;69.00
20971;BME280;10644;48.834;10.088;2022-08-19T13:27:31;96376.75;;;23.22;68.76
20971;BME280;10644;48.834;10.088;2022-08-19T13:29:57;96366.66;;;23.19;68.82
20971;BME280;10644;48.834;10.088;2022-08-19T13:32:41;96365.03;;;23.02;69.02
20971;BME280;10644;48.834;10.088;2022-08-19T13:35:26;96373.97;;;23.08;69.50
20971;BME280;10644;48.834;10.088;2022-08-19T13:37:51;96378.38;;;23.15;68.58
20971;BME280;10644;48.834;10.088;2022-08-19T13:40:19;96377.25;;;23.10;68.96
20971;BME280;10644;48.834;10.088;2022-08-19T13:42:48;96386.41;;;23.06;69.20
20971;BME280;10644;48.834;10.088;2022-08-19T13:45:19;96382.28;;;23.11;68.74
20971;BME280;10644;48.834;10.088;2022-08-19T13:47:49;96373.19;;;23.07;68.92
20971;BME280;10644;48.834;10.088;2022-08-19T13:50:23;96379.88;;;23.10;68.82